aviador You're here:

KBMG Decoded Metar

BLOOMINGTON in IN, USA
Report Time2017-07-21 03:53:00
UTC Time2017-07-21 04:36:53
Flight Rules vfr VFR
Wind230° at 05 kt
W.Decomp.*RWY 24: 5.0 kt HW 0.7 kt LCW
RWY 17: 2.3 kt HW 4.4 kt RCW
W.Rank230° ranks 5
Current wind is below 230° avg. (8.0)
Visibility9999 m
Phenomena:N/A
Clouds:N/A
Expected CloudBase > 1,600 ft AGL from Temp-Dew spread
CeilingNone
Temp26°C (ISA +13)
Dew Point22°C (79% RH)
QNH1016 hPa
Density Alt2,556 ft
Elevation843 ft
Report Wrong Elevation
Raw Report
METAR KBMG 210353Z AUTO 23005KT 10SM CLR 26/22 A3001 RMK AO2 SLP152
T02610222=

Extra information for KBMG:More info

Metar Taf Metar & Taf Last 4 Metars F.Rules Stats Wind Profile Meteogram Temp Stats Airport Information Weather charts Add Link Nearby VenuesMetar ALERT Operation Metar Decoded Social comments

AIRNAV info for KBMG